createdAt,value
2022-08-04T00:02:34.000Z,28.13
2022-08-04T00:07:55.000Z,28.87
2022-08-04T00:12:41.000Z,29.12
2022-08-04T00:17:35.000Z,28.36
2022-08-04T00:22:34.000Z,27.37
2022-08-04T00:27:35.000Z,27.33
2022-08-04T00:32:44.000Z,28.65
2022-08-04T00:37:34.000Z,28.65
2022-08-04T00:42:35.000Z,28.85
2022-08-04T00:47:34.000Z,28.9
2022-08-04T00:52:43.000Z,28.28
2022-08-04T00:57:44.000Z,27.74
2022-08-04T01:02:34.000Z,27.67
2022-08-04T01:07:34.000Z,27.59
2022-08-04T01:12:34.000Z,28.51
2022-08-04T01:17:35.000Z,30.21
2022-08-04T01:22:35.000Z,30.21
2022-08-04T01:27:37.000Z,28.02
2022-08-04T01:32:36.000Z,27.76
2022-08-04T01:37:34.000Z,29.32
2022-08-04T01:42:42.000Z,27.47
2022-08-04T01:47:34.000Z,26.97
2022-08-04T01:52:34.000Z,26.44
2022-08-04T01:57:49.000Z,26.44
2022-08-04T02:02:35.000Z,27.37
2022-08-04T02:07:34.000Z,26
2022-08-04T02:12:34.000Z,25.03
2022-08-04T02:17:35.000Z,25.92
2022-08-04T02:22:35.000Z,24.84
2022-08-04T02:27:35.000Z,24.45
2022-08-04T02:32:35.000Z,25.69
2022-08-04T02:37:35.000Z,25.69
2022-08-04T02:42:35.000Z,25.04
2022-08-04T02:48:38.000Z,24.96
2022-08-04T02:52:34.000Z,24.23
2022-08-04T03:02:34.000Z,23.61
2022-08-04T03:07:35.000Z,23.31
2022-08-04T03:12:34.000Z,23.31
2022-08-04T03:17:35.000Z,23.12
2022-08-04T03:22:34.000Z,22.89
2022-08-04T03:27:34.000Z,22.63
2022-08-04T03:32:34.000Z,22.3
2022-08-04T03:37:34.000Z,22.29
2022-08-04T03:42:35.000Z,21.73
2022-08-04T03:47:35.000Z,21.77
2022-08-04T03:52:35.000Z,21.77
2022-08-04T03:57:35.000Z,21.17
2022-08-04T04:02:35.000Z,20.45
2022-08-04T04:07:46.000Z,20.05
2022-08-04T04:12:35.000Z,19.51
2022-08-04T04:17:34.000Z,19.64
2022-08-04T04:22:34.000Z,19.64
2022-08-04T04:27:34.000Z,20.07
2022-08-04T04:32:35.000Z,20.24
2022-08-04T04:37:35.000Z,20.1
2022-08-04T04:42:35.000Z,18.43
2022-08-04T04:48:19.000Z,18.53
2022-08-04T04:52:35.000Z,17.71
2022-08-04T04:58:03.000Z,17.9
2022-08-04T05:02:34.000Z,16.83
2022-08-04T05:07:35.000Z,15.45
2022-08-04T05:17:35.000Z,17.25
2022-08-04T05:22:35.000Z,16.94
2022-08-04T05:27:34.000Z,15.87
2022-08-04T05:32:35.000Z,14
2022-08-04T05:37:40.000Z,14.77
2022-08-04T05:42:35.000Z,16.02
2022-08-04T05:47:35.000Z,16.68
2022-08-04T05:52:35.000Z,16.68
2022-08-04T05:57:34.000Z,17.65
2022-08-04T06:02:34.000Z,14.99
2022-08-04T06:07:35.000Z,15.34
2022-08-04T06:12:35.000Z,14.75
2022-08-04T06:20:08.000Z,14.36
2022-08-04T06:27:35.000Z,13.83
2022-08-04T06:32:43.000Z,13.64
2022-08-04T06:37:53.000Z,12.84
2022-08-04T06:42:35.000Z,12.31
2022-08-04T06:47:34.000Z,11.66
2022-08-04T06:52:34.000Z,11.3
2022-08-04T06:57:34.000Z,10.44
2022-08-04T07:02:34.000Z,9.46
2022-08-04T07:08:07.000Z,9.39
2022-08-04T07:12:34.000Z,9.39
2022-08-04T07:17:38.000Z,9.22
2022-08-04T07:22:35.000Z,7.53
2022-08-04T07:27:59.000Z,7.93
2022-08-04T07:32:35.000Z,7.92
2022-08-04T07:37:50.000Z,7.59
2022-08-04T07:42:35.000Z,7.82
2022-08-04T07:47:35.000Z,7.82
2022-08-04T07:52:34.000Z,8.97
2022-08-04T07:57:52.000Z,7.93
2022-08-04T08:02:35.000Z,8.61
2022-08-04T08:07:35.000Z,8.61
2022-08-04T08:13:00.000Z,8.51
2022-08-04T08:17:34.000Z,7.85
2022-08-04T08:22:34.000Z,8.61
2022-08-04T08:27:34.000Z,9.05
2022-08-04T08:32:35.000Z,9.79
2022-08-04T08:37:34.000Z,9.54
2022-08-04T08:42:34.000Z,10.15
2022-08-04T08:57:35.000Z,9.63
2022-08-04T09:02:35.000Z,9.51
2022-08-04T09:07:35.000Z,9.89
2022-08-04T09:12:36.000Z,10.16
2022-08-04T09:17:35.000Z,9.61
2022-08-04T09:22:35.000Z,10.55
2022-08-04T09:27:34.000Z,10.43
2022-08-04T09:32:35.000Z,9.48
2022-08-04T09:37:35.000Z,9.81
2022-08-04T09:42:36.000Z,9.44
2022-08-04T09:47:34.000Z,9.44
2022-08-04T09:52:35.000Z,10.4
2022-08-04T09:57:34.000Z,10.6
2022-08-04T10:02:35.000Z,9.81
2022-08-04T10:07:34.000Z,10.52
2022-08-04T10:12:35.000Z,10.07
2022-08-04T10:17:34.000Z,13.05
2022-08-04T10:22:42.000Z,11.54
2022-08-04T10:27:35.000Z,11.9
2022-08-04T10:32:34.000Z,11.9
2022-08-04T10:38:12.000Z,11.16
2022-08-04T10:42:34.000Z,10.65
2022-08-04T10:52:35.000Z,13.2
2022-08-04T10:57:35.000Z,14.78
2022-08-04T11:12:35.000Z,11.74
2022-08-04T11:17:35.000Z,11.79
2022-08-04T11:22:34.000Z,11.65
2022-08-04T11:27:35.000Z,12.88
2022-08-04T11:37:35.000Z,13.95
2022-08-04T11:42:35.000Z,14.59
2022-08-04T11:47:35.000Z,14.59
2022-08-04T11:52:35.000Z,13.22
2022-08-04T12:02:35.000Z,15.19
2022-08-04T12:07:51.000Z,17.33
2022-08-04T12:12:34.000Z,13.16
2022-08-04T12:17:40.000Z,13.59
2022-08-04T12:22:41.000Z,14.09
2022-08-04T12:27:40.000Z,14.09
2022-08-04T12:32:35.000Z,13.83
2022-08-04T12:37:35.000Z,13.55
2022-08-04T12:42:35.000Z,13.74
2022-08-04T12:47:46.000Z,13.88
2022-08-04T12:52:55.000Z,13.98
2022-08-04T12:57:35.000Z,15.48
2022-08-04T13:02:34.000Z,15.59
2022-08-04T13:07:35.000Z,15.59
2022-08-04T13:12:43.000Z,17.51
2022-08-04T13:17:39.000Z,17.78
2022-08-04T13:22:36.000Z,16.61
2022-08-04T13:27:35.000Z,16.73
2022-08-04T13:32:35.000Z,16.73
2022-08-04T13:37:36.000Z,16.24
2022-08-04T13:42:35.000Z,13.93
2022-08-04T13:47:35.000Z,14.34
2022-08-04T13:52:35.000Z,14.07
2022-08-04T13:57:35.000Z,14.19
2022-08-04T14:02:35.000Z,14.76
2022-08-04T14:07:34.000Z,14.1
2022-08-04T14:12:55.000Z,16.55
2022-08-04T14:17:40.000Z,16.55
2022-08-04T14:22:35.000Z,15.21
2022-08-04T14:27:35.000Z,14.04
2022-08-04T14:32:36.000Z,14.63
2022-08-04T14:37:35.000Z,14.28
2022-08-04T14:42:35.000Z,14.7
2022-08-04T14:47:34.000Z,16.4
2022-08-04T14:52:35.000Z,13.85
2022-08-04T14:57:34.000Z,14.28
2022-08-04T15:02:40.000Z,15.29
2022-08-04T15:07:35.000Z,15.29
2022-08-04T15:12:35.000Z,13.9
2022-08-04T15:17:40.000Z,15.02
2022-08-04T15:27:35.000Z,15.8
2022-08-04T15:32:35.000Z,16.39
2022-08-04T15:37:35.000Z,16.37
2022-08-04T15:42:35.000Z,16.48
2022-08-04T15:52:42.000Z,16.79
2022-08-04T15:57:34.000Z,17.59
2022-08-04T16:02:35.000Z,16.99
2022-08-04T16:07:34.000Z,16.59
2022-08-04T16:13:03.000Z,16.61
2022-08-04T16:17:34.000Z,17.27
2022-08-04T16:22:35.000Z,17.12
2022-08-04T16:27:35.000Z,16.06
2022-08-04T16:32:35.000Z,16.06
2022-08-04T16:37:35.000Z,16.52
2022-08-04T16:42:34.000Z,16.61
2022-08-04T16:47:35.000Z,16.51
2022-08-04T16:52:35.000Z,16.75
2022-08-04T16:57:35.000Z,17.49
2022-08-04T17:02:36.000Z,18.63
2022-08-04T17:07:34.000Z,21.93
2022-08-04T17:12:35.000Z,21.93
2022-08-04T17:18:14.000Z,21.33
2022-08-04T17:22:35.000Z,21.82
2022-08-04T17:28:30.000Z,24.47
2022-08-04T17:38:02.000Z,22.93
2022-08-04T17:42:35.000Z,24.27
2022-08-04T17:47:35.000Z,24.27
2022-08-04T17:52:54.000Z,24.03
2022-08-04T17:57:35.000Z,25.29
2022-08-04T18:02:44.000Z,24.71
2022-08-04T18:09:00.000Z,24.72
2022-08-04T18:18:32.000Z,24.75
2022-08-04T18:22:38.000Z,24.75
2022-08-04T18:27:35.000Z,21.93
2022-08-04T22:32:36.000Z,27.61
2022-08-04T22:42:35.000Z,26.77
2022-08-04T22:47:36.000Z,27.26
2022-08-04T22:52:40.000Z,26.5
2022-08-04T22:58:14.000Z,26.2
2022-08-04T23:02:35.000Z,27.13
2022-08-04T23:07:59.000Z,26.47
2022-08-04T23:12:37.000Z,26.47
2022-08-04T23:17:37.000Z,26.28
2022-08-04T23:22:52.000Z,26.51
2022-08-04T23:27:43.000Z,27.32
2022-08-04T23:32:35.000Z,32.67
2022-08-04T23:37:45.000Z,30.11
2022-08-04T23:42:35.000Z,27.54
2022-08-04T23:48:29.000Z,26.04
2022-08-04T23:52:41.000Z,26.03
2022-08-04T23:57:41.000Z,26.03
